Погода Саврасихана неделю

Тверская область, Россия

25 - 31 мая
  • 25мая
    Сегодня
    +10°
    +25°
    Ясно и безоблачно
    ВремяПогодаТемператураВлажностьДавлениеВетер, м/сВероятность осадков
    00:00Ясно и безоблачно+11°C51 %761 мм0.9 м/с2 %
    03:00Ясно и безоблачно+8°C56 %761 мм1.0 м/с2 %
    06:00Ясно и безоблачно+12°C56 %761 мм1.3 м/с2 %
    09:00Ясно и безоблачно+20°C40 %760 мм2.3 м/с2 %
    12:00Ясно и безоблачно+23°C30 %759 мм3.0 м/с2 %
    15:00Ясно и безоблачно+25°C31 %758 мм3.1 м/с2 %
    18:00Ясно и безоблачно+25°C35 %757 мм2.9 м/с1 %
    21:00Ясно и безоблачно+19°C46 %757 мм1.5 м/с2 %
  • 26мая
    Воскресенье
    +6°
    +22°
    Облачно с прояснениями
    ВремяПогодаТемператураВлажностьДавлениеВетер, м/сВероятность осадков
    00:00Ясно и безоблачно+14°C55 %757 мм0.8 м/с2 %
    03:00Ясно и безоблачно+11°C73 %757 мм0.6 м/с2 %
    06:00Облачно с прояснениями+13°C83 %758 мм0.7 м/с9 %
    09:00Небольшая облачность, ливень+18°C86 %758 мм1.3 м/с35 %
    12:00Небольшая облачность+20°C52 %759 мм2.2 м/с35 %
    15:00Облачно с прояснениями+21°C31 %759 мм2.4 м/с21 %
    18:00Небольшая облачность+21°C36 %759 мм2.4 м/с8 %
    21:00Ясно и безоблачно+16°C45 %759 мм1.4 м/с1 %
  • 27мая
    Понедельник
    +8°
    +23°
    Практически безоблачно
    ВремяПогодаТемператураВлажностьДавлениеВетер, м/сВероятность осадков
    00:00Ясно и безоблачно+9°C51 %760 мм0.6 м/с2 %
    03:00Ясно и безоблачно+6°C60 %761 мм0.7 м/с2 %
    06:00Ясно и безоблачно+9°C67 %761 мм0.7 м/с2 %
    09:00Ясно и безоблачно+17°C43 %762 мм1.6 м/с2 %
    12:00Ясно и безоблачно+21°C33 %761 мм1.8 м/с2 %
    15:00Практически безоблачно+23°C31 %760 мм1.7 м/с2 %
    18:00Ясно и безоблачно+23°C33 %759 мм1.8 м/с2 %
    21:00Ясно и безоблачно+17°C51 %758 мм0.6 м/с2 %
  • 28мая
    Вторник
    +9°
    +27°
    Небольшая облачность
    ВремяПогодаТемператураВлажностьДавлениеВетер, м/сВероятность осадков
    00:00Ясно и безоблачно+11°C52 %758 мм0.5 м/с2 %
    03:00Ясно и безоблачно+9°C59 %758 мм0.7 м/с2 %
    06:00Ясно и безоблачно+12°C66 %758 мм0.6 м/с2 %
    09:00Ясно и безоблачно+21°C47 %757 мм1.1 м/с2 %
    12:00Ясно и безоблачно+25°C35 %757 мм1.3 м/с7 %
    15:00Небольшая облачность+27°C31 %756 мм1.4 м/с11 %
    18:00Практически безоблачно+26°C32 %754 мм1.8 м/с10 %
    21:00Ясно и безоблачно+20°C47 %754 мм0.5 м/с7 %
  • 29мая
    Среда
    +11°
    +29°
    Небольшая облачность
    ВремяПогодаТемператураВлажностьДавлениеВетер, м/сВероятность осадков
    00:00Ясно и безоблачно+14°C64 %754 мм0.2 м/с2 %
    03:00Ясно и безоблачно+11°C77 %754 мм0.3 м/с2 %
    06:00Ясно и безоблачно+14°C75 %753 мм0.2 м/с2 %
    09:00Ясно и безоблачно+24°C49 %753 мм0.9 м/с5 %
    12:00Практически безоблачно+27°C34 %753 мм1.7 м/с11 %
    15:00Небольшая облачность+27°C36 %752 мм1.6 м/с21 %
    18:00Облачно с прояснениями+24°C54 %751 мм1.6 м/с28 %
    21:00Небольшая облачность+20°C76 %751 мм0.5 м/с10 %
Мы используем cookies
Соглашаюсь